sensor_id;sensor_type;location;lat;lon;timestamp;P1;durP1;ratioP1;P2;durP2;ratioP2
70908;SDS011;58554;52.006;5.926;2023-09-19T00:01:29;4.13;;;1.30;;
70908;SDS011;58554;52.006;5.926;2023-09-19T00:03:59;3.50;;;1.40;;
70908;SDS011;58554;52.006;5.926;2023-09-19T00:06:25;4.03;;;1.90;;
70908;SDS011;58554;52.006;5.926;2023-09-19T00:08:55;4.43;;;1.40;;
70908;SDS011;58554;52.006;5.926;2023-09-19T00:11:21;4.97;;;1.53;;
70908;SDS011;58554;52.006;5.926;2023-09-19T00:13:48;2.60;;;1.40;;
70908;SDS011;58554;52.006;5.926;2023-09-19T00:16:14;4.00;;;1.50;;
70908;SDS011;58554;52.006;5.926;2023-09-19T00:18:41;4.55;;;1.50;;
70908;SDS011;58554;52.006;5.926;2023-09-19T00:21:10;4.85;;;1.50;;
70908;SDS011;58554;52.006;5.926;2023-09-19T00:23:37;4.07;;;1.77;;
70908;SDS011;58554;52.006;5.926;2023-09-19T00:26:06;6.00;;;1.43;;
70908;SDS011;58554;52.006;5.926;2023-09-19T00:28:33;5.10;;;1.60;;
70908;SDS011;58554;52.006;5.926;2023-09-19T00:30:59;5.70;;;1.70;;
70908;SDS011;58554;52.006;5.926;2023-09-19T00:33:26;4.17;;;1.47;;
70908;SDS011;58554;52.006;5.926;2023-09-19T00:35:53;4.57;;;1.50;;
70908;SDS011;58554;52.006;5.926;2023-09-19T00:38:24;7.78;;;2.00;;
70908;SDS011;58554;52.006;5.926;2023-09-19T00:40:51;5.17;;;1.90;;
70908;SDS011;58554;52.006;5.926;2023-09-19T00:43:18;4.60;;;1.77;;
70908;SDS011;58554;52.006;5.926;2023-09-19T00:45:47;5.00;;;1.75;;
70908;SDS011;58554;52.006;5.926;2023-09-19T00:48:17;7.40;;;1.90;;
70908;SDS011;58554;52.006;5.926;2023-09-19T00:50:46;6.97;;;1.75;;
70908;SDS011;58554;52.006;5.926;2023-09-19T00:53:17;4.67;;;2.00;;
70908;SDS011;58554;52.006;5.926;2023-09-19T00:55:50;4.67;;;1.80;;
70908;SDS011;58554;52.006;5.926;2023-09-19T00:58:17;7.23;;;1.97;;
70908;SDS011;58554;52.006;5.926;2023-09-19T01:00:45;7.93;;;1.88;;
70908;SDS011;58554;52.006;5.926;2023-09-19T01:03:13;6.45;;;2.17;;
70908;SDS011;58554;52.006;5.926;2023-09-19T01:05:40;7.70;;;1.90;;
70908;SDS011;58554;52.006;5.926;2023-09-19T01:08:07;8.47;;;1.87;;
70908;SDS011;58554;52.006;5.926;2023-09-19T01:10:36;6.97;;;2.00;;
70908;SDS011;58554;52.006;5.926;2023-09-19T01:13:21;8.77;;;1.90;;
70908;SDS011;58554;52.006;5.926;2023-09-19T01:15:59;5.77;;;1.80;;
70908;SDS011;58554;52.006;5.926;2023-09-19T01:18:42;4.82;;;1.95;;
70908;SDS011;58554;52.006;5.926;2023-09-19T01:21:22;8.95;;;2.15;;
70908;SDS011;58554;52.006;5.926;2023-09-19T01:24:06;7.18;;;2.28;;
70908;SDS011;58554;52.006;5.926;2023-09-19T01:30:09;5.25;;;2.10;;
70908;SDS011;58554;52.006;5.926;2023-09-19T01:32:36;5.57;;;1.90;;
70908;SDS011;58554;52.006;5.926;2023-09-19T01:35:05;9.30;;;2.33;;
70908;SDS011;58554;52.006;5.926;2023-09-19T01:37:32;9.23;;;2.05;;
70908;SDS011;58554;52.006;5.926;2023-09-19T01:40:00;8.07;;;2.53;;
70908;SDS011;58554;52.006;5.926;2023-09-19T01:42:33;7.13;;;2.13;;
70908;SDS011;58554;52.006;5.926;2023-09-19T01:45:13;5.60;;;2.10;;
70908;SDS011;58554;52.006;5.926;2023-09-19T01:47:59;8.23;;;2.40;;
70908;SDS011;58554;52.006;5.926;2023-09-19T01:50:44;7.72;;;2.28;;
70908;SDS011;58554;52.006;5.926;2023-09-19T01:53:25;7.20;;;2.13;;
70908;SDS011;58554;52.006;5.926;2023-09-19T01:55:56;10.13;;;2.70;;
70908;SDS011;58554;52.006;5.926;2023-09-19T01:58:27;7.85;;;2.15;;
70908;SDS011;58554;52.006;5.926;2023-09-19T02:01:03;9.60;;;2.50;;
70908;SDS011;58554;52.006;5.926;2023-09-19T02:03:34;9.32;;;1.98;;
70908;SDS011;58554;52.006;5.926;2023-09-19T02:06:04;7.97;;;2.05;;
70908;SDS011;58554;52.006;5.926;2023-09-19T02:08:31;12.82;;;2.00;;
70908;SDS011;58554;52.006;5.926;2023-09-19T02:10:57;7.57;;;2.13;;
70908;SDS011;58554;52.006;5.926;2023-09-19T02:13:24;6.27;;;1.90;;
70908;SDS011;58554;52.006;5.926;2023-09-19T02:15:51;7.23;;;2.37;;
70908;SDS011;58554;52.006;5.926;2023-09-19T02:18:21;9.18;;;2.13;;
70908;SDS011;58554;52.006;5.926;2023-09-19T02:20:47;12.18;;;2.33;;
70908;SDS011;58554;52.006;5.926;2023-09-19T02:23:14;9.25;;;2.20;;
70908;SDS011;58554;52.006;5.926;2023-09-19T02:25:41;7.17;;;1.80;;
70908;SDS011;58554;52.006;5.926;2023-09-19T02:28:07;9.07;;;2.33;;
70908;SDS011;58554;52.006;5.926;2023-09-19T02:30:34;13.20;;;2.30;;
70908;SDS011;58554;52.006;5.926;2023-09-19T02:33:01;7.00;;;2.07;;
70908;SDS011;58554;52.006;5.926;2023-09-19T02:35:31;7.68;;;2.08;;
70908;SDS011;58554;52.006;5.926;2023-09-19T02:37:57;8.47;;;1.80;;
70908;SDS011;58554;52.006;5.926;2023-09-19T02:40:24;7.30;;;1.98;;
70908;SDS011;58554;52.006;5.926;2023-09-19T02:42:52;6.32;;;2.00;;
70908;SDS011;58554;52.006;5.926;2023-09-19T02:45:20;7.77;;;1.87;;
70908;SDS011;58554;52.006;5.926;2023-09-19T02:47:50;8.63;;;2.03;;
70908;SDS011;58554;52.006;5.926;2023-09-19T02:50:16;10.25;;;1.90;;
70908;SDS011;58554;52.006;5.926;2023-09-19T02:52:46;9.60;;;2.15;;
70908;SDS011;58554;52.006;5.926;2023-09-19T02:55:13;7.13;;;1.77;;
70908;SDS011;58554;52.006;5.926;2023-09-19T02:57:44;6.40;;;2.00;;
70908;SDS011;58554;52.006;5.926;2023-09-19T03:00:12;9.63;;;2.20;;
70908;SDS011;58554;52.006;5.926;2023-09-19T03:02:40;7.40;;;1.83;;
70908;SDS011;58554;52.006;5.926;2023-09-19T03:05:07;6.68;;;2.00;;
70908;SDS011;58554;52.006;5.926;2023-09-19T03:07:34;7.23;;;2.00;;
70908;SDS011;58554;52.006;5.926;2023-09-19T03:10:03;7.23;;;1.73;;
70908;SDS011;58554;52.006;5.926;2023-09-19T03:12:31;5.88;;;1.60;;
70908;SDS011;58554;52.006;5.926;2023-09-19T03:14:58;6.00;;;1.93;;
70908;SDS011;58554;52.006;5.926;2023-09-19T03:17:25;11.00;;;2.53;;
70908;SDS011;58554;52.006;5.926;2023-09-19T03:19:51;7.93;;;2.05;;
70908;SDS011;58554;52.006;5.926;2023-09-19T03:22:18;6.15;;;1.90;;
70908;SDS011;58554;52.006;5.926;2023-09-19T03:24:44;7.47;;;2.10;;
70908;SDS011;58554;52.006;5.926;2023-09-19T03:27:13;7.03;;;1.80;;
70908;SDS011;58554;52.006;5.926;2023-09-19T03:29:40;9.93;;;1.92;;
70908;SDS011;58554;52.006;5.926;2023-09-19T03:32:07;7.88;;;1.85;;
70908;SDS011;58554;52.006;5.926;2023-09-19T03:34:33;6.17;;;1.80;;
70908;SDS011;58554;52.006;5.926;2023-09-19T03:37:02;7.83;;;2.13;;
70908;SDS011;58554;52.006;5.926;2023-09-19T03:39:29;10.05;;;2.13;;
70908;SDS011;58554;52.006;5.926;2023-09-19T03:41:56;6.23;;;1.90;;
70908;SDS011;58554;52.006;5.926;2023-09-19T03:44:25;6.37;;;1.73;;
70908;SDS011;58554;52.006;5.926;2023-09-19T03:46:51;7.70;;;2.17;;
70908;SDS011;58554;52.006;5.926;2023-09-19T03:49:18;6.13;;;2.00;;
70908;SDS011;58554;52.006;5.926;2023-09-19T03:51:44;8.03;;;1.60;;
70908;SDS011;58554;52.006;5.926;2023-09-19T03:54:11;6.55;;;2.00;;
70908;SDS011;58554;52.006;5.926;2023-09-19T03:56:38;6.57;;;1.60;;
70908;SDS011;58554;52.006;5.926;2023-09-19T03:59:04;8.60;;;1.90;;
70908;SDS011;58554;52.006;5.926;2023-09-19T04:01:33;6.32;;;1.80;;
70908;SDS011;58554;52.006;5.926;2023-09-19T04:04:00;8.35;;;1.83;;
70908;SDS011;58554;52.006;5.926;2023-09-19T04:06:27;7.80;;;2.07;;
70908;SDS011;58554;52.006;5.926;2023-09-19T04:08:53;7.90;;;2.00;;
70908;SDS011;58554;52.006;5.926;2023-09-19T04:11:20;9.13;;;1.93;;
70908;SDS011;58554;52.006;5.926;2023-09-19T04:13:46;10.37;;;1.90;;
70908;SDS011;58554;52.006;5.926;2023-09-19T04:16:13;5.13;;;1.60;;
70908;SDS011;58554;52.006;5.926;2023-09-19T04:18:42;6.63;;;1.67;;
70908;SDS011;58554;52.006;5.926;2023-09-19T04:21:09;6.73;;;1.90;;
70908;SDS011;58554;52.006;5.926;2023-09-19T04:23:35;7.57;;;1.87;;
70908;SDS011;58554;52.006;5.926;2023-09-19T04:26:02;5.05;;;1.65;;
70908;SDS011;58554;52.006;5.926;2023-09-19T04:28:28;5.95;;;1.75;;
70908;SDS011;58554;52.006;5.926;2023-09-19T04:30:55;5.85;;;1.55;;
70908;SDS011;58554;52.006;5.926;2023-09-19T04:33:22;5.03;;;1.70;;
70908;SDS011;58554;52.006;5.926;2023-09-19T04:35:51;11.17;;;2.00;;
70908;SDS011;58554;52.006;5.926;2023-09-19T04:38:18;7.78;;;2.00;;
70908;SDS011;58554;52.006;5.926;2023-09-19T04:40:45;11.63;;;1.90;;
70908;SDS011;58554;52.006;5.926;2023-09-19T04:43:12;6.00;;;1.70;;
70908;SDS011;58554;52.006;5.926;2023-09-19T04:45:38;8.60;;;1.80;;
70908;SDS011;58554;52.006;5.926;2023-09-19T04:48:05;5.17;;;1.87;;
70908;SDS011;58554;52.006;5.926;2023-09-19T04:50:32;8.80;;;1.67;;
70908;SDS011;58554;52.006;5.926;2023-09-19T04:53:02;7.30;;;1.70;;
70908;SDS011;58554;52.006;5.926;2023-09-19T04:55:29;6.43;;;2.00;;
70908;SDS011;58554;52.006;5.926;2023-09-19T04:57:55;8.13;;;1.53;;
70908;SDS011;58554;52.006;5.926;2023-09-19T05:00:22;7.43;;;1.95;;
70908;SDS011;58554;52.006;5.926;2023-09-19T05:02:49;5.57;;;1.50;;
70908;SDS011;58554;52.006;5.926;2023-09-19T05:05:17;9.37;;;1.80;;
70908;SDS011;58554;52.006;5.926;2023-09-19T05:07:44;8.10;;;1.93;;
70908;SDS011;58554;52.006;5.926;2023-09-19T05:10:15;6.77;;;1.90;;
70908;SDS011;58554;52.006;5.926;2023-09-19T05:12:41;8.00;;;1.75;;
70908;SDS011;58554;52.006;5.926;2023-09-19T05:15:08;5.40;;;1.50;;
70908;SDS011;58554;52.006;5.926;2023-09-19T05:17:35;4.93;;;1.67;;
70908;SDS011;58554;52.006;5.926;2023-09-19T05:20:02;7.65;;;1.88;;
70908;SDS011;58554;52.006;5.926;2023-09-19T05:22:30;4.77;;;1.67;;
70908;SDS011;58554;52.006;5.926;2023-09-19T05:24:57;7.70;;;1.97;;
70908;SDS011;58554;52.006;5.926;2023-09-19T05:27:26;6.78;;;1.63;;
70908;SDS011;58554;52.006;5.926;2023-09-19T05:29:52;6.60;;;1.60;;
70908;SDS011;58554;52.006;5.926;2023-09-19T05:32:19;9.27;;;1.88;;
70908;SDS011;58554;52.006;5.926;2023-09-19T05:34:45;5.07;;;1.60;;
70908;SDS011;58554;52.006;5.926;2023-09-19T05:37:12;5.70;;;1.50;;
70908;SDS011;58554;52.006;5.926;2023-09-19T05:39:39;6.70;;;1.77;;
70908;SDS011;58554;52.006;5.926;2023-09-19T05:42:07;5.63;;;1.90;;
70908;SDS011;58554;52.006;5.926;2023-09-19T05:44:37;5.85;;;1.60;;
70908;SDS011;58554;52.006;5.926;2023-09-19T05:47:03;6.43;;;1.63;;
70908;SDS011;58554;52.006;5.926;2023-09-19T05:49:30;7.07;;;1.60;;
70908;SDS011;58554;52.006;5.926;2023-09-19T05:51:57;7.75;;;1.80;;
70908;SDS011;58554;52.006;5.926;2023-09-19T05:54:26;5.65;;;1.40;;
70908;SDS011;58554;52.006;5.926;2023-09-19T05:56:53;6.50;;;1.60;;
70908;SDS011;58554;52.006;5.926;2023-09-19T05:59:19;8.53;;;1.50;;
70908;SDS011;58554;52.006;5.926;2023-09-19T06:01:49;5.00;;;1.60;;
70908;SDS011;58554;52.006;5.926;2023-09-19T06:04:15;6.67;;;1.77;;
70908;SDS011;58554;52.006;5.926;2023-09-19T06:06:42;8.38;;;1.70;;
70908;SDS011;58554;52.006;5.926;2023-09-19T06:09:08;6.20;;;1.58;;
70908;SDS011;58554;52.006;5.926;2023-09-19T06:11:35;5.93;;;1.50;;
70908;SDS011;58554;52.006;5.926;2023-09-19T06:14:02;4.83;;;1.30;;
70908;SDS011;58554;52.006;5.926;2023-09-19T06:16:29;6.57;;;1.83;;
70908;SDS011;58554;52.006;5.926;2023-09-19T06:18:59;6.38;;;1.70;;
70908;SDS011;58554;52.006;5.926;2023-09-19T06:21:26;9.00;;;1.70;;
70908;SDS011;58554;52.006;5.926;2023-09-19T06:23:53;5.43;;;1.60;;
70908;SDS011;58554;52.006;5.926;2023-09-19T06:26:19;5.72;;;1.60;;
70908;SDS011;58554;52.006;5.926;2023-09-19T06:28:46;6.50;;;1.40;;
70908;SDS011;58554;52.006;5.926;2023-09-19T06:31:13;7.40;;;1.73;;
70908;SDS011;58554;52.006;5.926;2023-09-19T06:33:39;8.93;;;1.80;;
70908;SDS011;58554;52.006;5.926;2023-09-19T06:36:08;10.02;;;1.90;;
70908;SDS011;58554;52.006;5.926;2023-09-19T06:38:35;5.97;;;1.60;;
70908;SDS011;58554;52.006;5.926;2023-09-19T06:41:02;6.10;;;1.50;;
70908;SDS011;58554;52.006;5.926;2023-09-19T06:43:29;7.20;;;1.83;;
70908;SDS011;58554;52.006;5.926;2023-09-19T06:45:55;9.43;;;1.70;;
70908;SDS011;58554;52.006;5.926;2023-09-19T06:48:22;8.27;;;1.83;;
70908;SDS011;58554;52.006;5.926;2023-09-19T06:50:49;7.13;;;1.77;;
70908;SDS011;58554;52.006;5.926;2023-09-19T06:53:19;7.47;;;1.73;;
70908;SDS011;58554;52.006;5.926;2023-09-19T06:55:45;10.70;;;1.67;;
70908;SDS011;58554;52.006;5.926;2023-09-19T06:58:12;9.37;;;1.80;;
70908;SDS011;58554;52.006;5.926;2023-09-19T07:00:38;6.55;;;1.88;;
70908;SDS011;58554;52.006;5.926;2023-09-19T07:03:05;6.23;;;1.50;;
70908;SDS011;58554;52.006;5.926;2023-09-19T07:05:34;6.30;;;1.40;;
70908;SDS011;58554;52.006;5.926;2023-09-19T07:08:01;5.20;;;1.50;;
70908;SDS011;58554;52.006;5.926;2023-09-19T07:10:30;6.80;;;1.60;;
70908;SDS011;58554;52.006;5.926;2023-09-19T07:12:58;7.07;;;1.60;;
70908;SDS011;58554;52.006;5.926;2023-09-19T07:15:25;12.13;;;2.03;;
70908;SDS011;58554;52.006;5.926;2023-09-19T07:17:53;10.40;;;1.63;;
70908;SDS011;58554;52.006;5.926;2023-09-19T07:20:20;5.28;;;1.40;;
70908;SDS011;58554;52.006;5.926;2023-09-19T07:22:47;6.32;;;1.33;;
70908;SDS011;58554;52.006;5.926;2023-09-19T07:25:15;7.93;;;1.60;;
70908;SDS011;58554;52.006;5.926;2023-09-19T07:27:44;6.90;;;1.63;;
70908;SDS011;58554;52.006;5.926;2023-09-19T07:30:11;8.80;;;1.60;;
70908;SDS011;58554;52.006;5.926;2023-09-19T07:32:38;8.60;;;1.50;;
70908;SDS011;58554;52.006;5.926;2023-09-19T07:35:05;7.80;;;1.52;;
70908;SDS011;58554;52.006;5.926;2023-09-19T07:37:33;7.40;;;1.50;;
70908;SDS011;58554;52.006;5.926;2023-09-19T07:40:00;6.73;;;1.50;;
70908;SDS011;58554;52.006;5.926;2023-09-19T07:42:27;10.70;;;1.50;;
70908;SDS011;58554;52.006;5.926;2023-09-19T07:44:56;5.88;;;1.50;;
70908;SDS011;58554;52.006;5.926;2023-09-19T07:47:23;8.27;;;1.63;;
70908;SDS011;58554;52.006;5.926;2023-09-19T07:49:49;7.28;;;1.75;;
70908;SDS011;58554;52.006;5.926;2023-09-19T07:52:16;7.97;;;1.40;;
70908;SDS011;58554;52.006;5.926;2023-09-19T07:54:42;6.88;;;1.95;;
70908;SDS011;58554;52.006;5.926;2023-09-19T07:57:09;7.88;;;1.65;;
70908;SDS011;58554;52.006;5.926;2023-09-19T07:59:37;10.07;;;1.70;;
70908;SDS011;58554;52.006;5.926;2023-09-19T08:02:07;7.05;;;1.60;;
70908;SDS011;58554;52.006;5.926;2023-09-19T08:04:33;8.17;;;1.90;;
70908;SDS011;58554;52.006;5.926;2023-09-19T08:07:00;6.53;;;1.57;;
70908;SDS011;58554;52.006;5.926;2023-09-19T08:09:26;6.17;;;1.77;;
70908;SDS011;58554;52.006;5.926;2023-09-19T08:11:53;7.43;;;1.90;;
70908;SDS011;58554;52.006;5.926;2023-09-19T08:14:19;7.30;;;1.60;;
70908;SDS011;58554;52.006;5.926;2023-09-19T08:16:46;7.67;;;1.60;;
70908;SDS011;58554;52.006;5.926;2023-09-19T08:19:15;7.87;;;1.67;;
70908;SDS011;58554;52.006;5.926;2023-09-19T08:21:42;6.05;;;1.85;;
70908;SDS011;58554;52.006;5.926;2023-09-19T08:24:08;5.43;;;1.65;;
70908;SDS011;58554;52.006;5.926;2023-09-19T08:26:35;8.27;;;1.70;;
70908;SDS011;58554;52.006;5.926;2023-09-19T08:29:01;8.30;;;1.50;;
70908;SDS011;58554;52.006;5.926;2023-09-19T08:31:31;6.65;;;1.50;;
70908;SDS011;58554;52.006;5.926;2023-09-19T08:33:57;7.85;;;1.50;;
70908;SDS011;58554;52.006;5.926;2023-09-19T08:36:27;8.82;;;1.70;;
70908;SDS011;58554;52.006;5.926;2023-09-19T08:38:53;6.35;;;1.70;;
70908;SDS011;58554;52.006;5.926;2023-09-19T08:41:20;7.37;;;1.70;;
70908;SDS011;58554;52.006;5.926;2023-09-19T08:43:47;7.97;;;2.17;;
70908;SDS011;58554;52.006;5.926;2023-09-19T08:46:14;11.13;;;1.92;;
70908;SDS011;58554;52.006;5.926;2023-09-19T08:48:45;8.38;;;1.60;;
70908;SDS011;58554;52.006;5.926;2023-09-19T08:51:26;8.48;;;2.17;;
70908;SDS011;58554;52.006;5.926;2023-09-19T08:54:06;8.40;;;1.70;;
70908;SDS011;58554;52.006;5.926;2023-09-19T08:56:34;6.60;;;1.50;;
70908;SDS011;58554;52.006;5.926;2023-09-19T08:59:02;7.27;;;1.97;;
70908;SDS011;58554;52.006;5.926;2023-09-19T09:01:30;9.32;;;2.03;;
70908;SDS011;58554;52.006;5.926;2023-09-19T09:03:58;5.90;;;1.73;;
70908;SDS011;58554;52.006;5.926;2023-09-19T09:06:29;9.70;;;2.28;;
70908;SDS011;58554;52.006;5.926;2023-09-19T09:08:57;11.43;;;1.80;;
70908;SDS011;58554;52.006;5.926;2023-09-19T09:11:24;8.23;;;1.80;;
70908;SDS011;58554;52.006;5.926;2023-09-19T09:13:51;8.73;;;1.90;;
70908;SDS011;58554;52.006;5.926;2023-09-19T09:16:18;9.75;;;1.90;;
70908;SDS011;58554;52.006;5.926;2023-09-19T09:18:45;9.55;;;1.95;;
70908;SDS011;58554;52.006;5.926;2023-09-19T09:21:12;5.40;;;1.50;;
70908;SDS011;58554;52.006;5.926;2023-09-19T09:23:41;10.68;;;1.90;;
70908;SDS011;58554;52.006;5.926;2023-09-19T09:26:08;5.93;;;1.90;;
70908;SDS011;58554;52.006;5.926;2023-09-19T09:28:34;7.72;;;2.05;;
70908;SDS011;58554;52.006;5.926;2023-09-19T09:31:13;8.48;;;1.80;;
70908;SDS011;58554;52.006;5.926;2023-09-19T09:33:52;7.05;;;1.55;;
70908;SDS011;58554;52.006;5.926;2023-09-19T09:36:32;8.85;;;1.80;;
70908;SDS011;58554;52.006;5.926;2023-09-19T09:39:03;5.63;;;1.50;;
70908;SDS011;58554;52.006;5.926;2023-09-19T09:41:35;9.18;;;1.70;;
70908;SDS011;58554;52.006;5.926;2023-09-19T09:44:12;9.52;;;1.60;;
70908;SDS011;58554;52.006;5.926;2023-09-19T09:46:42;5.18;;;1.50;;
70908;SDS011;58554;52.006;5.926;2023-09-19T09:49:10;11.55;;;1.75;;
70908;SDS011;58554;52.006;5.926;2023-09-19T09:51:36;7.07;;;1.60;;
70908;SDS011;58554;52.006;5.926;2023-09-19T09:54:13;7.13;;;1.40;;
70908;SDS011;58554;52.006;5.926;2023-09-19T09:56:51;8.87;;;1.80;;
70908;SDS011;58554;52.006;5.926;2023-09-19T09:59:21;8.65;;;1.58;;
70908;SDS011;58554;52.006;5.926;2023-09-19T10:01:48;8.50;;;1.70;;
70908;SDS011;58554;52.006;5.926;2023-09-19T10:04:15;8.20;;;1.70;;
70908;SDS011;58554;52.006;5.926;2023-09-19T10:06:54;9.27;;;1.75;;
70908;SDS011;58554;52.006;5.926;2023-09-19T10:09:23;6.30;;;1.70;;
70908;SDS011;58554;52.006;5.926;2023-09-19T10:11:58;9.90;;;1.77;;
70908;SDS011;58554;52.006;5.926;2023-09-19T10:14:33;6.20;;;1.52;;
70908;SDS011;58554;52.006;5.926;2023-09-19T10:17:05;7.43;;;1.80;;
70908;SDS011;58554;52.006;5.926;2023-09-19T10:19:36;7.28;;;1.88;;
70908;SDS011;58554;52.006;5.926;2023-09-19T10:22:12;5.82;;;1.85;;
70908;SDS011;58554;52.006;5.926;2023-09-19T10:24:44;12.60;;;2.10;;
70908;SDS011;58554;52.006;5.926;2023-09-19T10:27:15;8.50;;;2.17;;
70908;SDS011;58554;52.006;5.926;2023-09-19T10:29:43;6.63;;;1.73;;
70908;SDS011;58554;52.006;5.926;2023-09-19T10:32:14;10.07;;;1.80;;
70908;SDS011;58554;52.006;5.926;2023-09-19T10:34:44;6.17;;;2.27;;
70908;SDS011;58554;52.006;5.926;2023-09-19T10:37:15;7.78;;;1.90;;
70908;SDS011;58554;52.006;5.926;2023-09-19T10:39:48;9.32;;;1.95;;
70908;SDS011;58554;52.006;5.926;2023-09-19T10:42:19;7.45;;;1.60;;
70908;SDS011;58554;52.006;5.926;2023-09-19T10:44:46;6.55;;;1.70;;
70908;SDS011;58554;52.006;5.926;2023-09-19T10:47:17;9.23;;;2.00;;
70908;SDS011;58554;52.006;5.926;2023-09-19T10:49:44;6.32;;;1.85;;
70908;SDS011;58554;52.006;5.926;2023-09-19T10:52:12;10.45;;;1.73;;
70908;SDS011;58554;52.006;5.926;2023-09-19T10:54:48;6.90;;;2.00;;
70908;SDS011;58554;52.006;5.926;2023-09-19T10:57:19;9.47;;;1.90;;
70908;SDS011;58554;52.006;5.926;2023-09-19T11:00:00;8.07;;;2.07;;
70908;SDS011;58554;52.006;5.926;2023-09-19T11:02:29;6.47;;;1.90;;
70908;SDS011;58554;52.006;5.926;2023-09-19T11:04:56;8.17;;;2.00;;
70908;SDS011;58554;52.006;5.926;2023-09-19T11:13:24;6.70;;;1.95;;
70908;SDS011;58554;52.006;5.926;2023-09-19T11:18:53;6.70;;;1.58;;
70908;SDS011;58554;52.006;5.926;2023-09-19T11:24:28;5.97;;;1.70;;
70908;SDS011;58554;52.006;5.926;2023-09-19T11:27:16;11.02;;;2.25;;
70908;SDS011;58554;52.006;5.926;2023-09-19T11:29:43;7.38;;;1.90;;
70908;SDS011;58554;52.006;5.926;2023-09-19T11:32:10;4.93;;;1.80;;
70908;SDS011;58554;52.006;5.926;2023-09-19T11:34:37;8.80;;;2.03;;
70908;SDS011;58554;52.006;5.926;2023-09-19T11:40:30;7.13;;;1.90;;
70908;SDS011;58554;52.006;5.926;2023-09-19T11:42:59;6.60;;;1.55;;
70908;SDS011;58554;52.006;5.926;2023-09-19T11:46:07;5.30;;;1.80;;
70908;SDS011;58554;52.006;5.926;2023-09-19T11:48:40;7.50;;;1.77;;
70908;SDS011;58554;52.006;5.926;2023-09-19T11:51:17;4.20;;;1.47;;
70908;SDS011;58554;52.006;5.926;2023-09-19T11:53:45;7.22;;;1.63;;
70908;SDS011;58554;52.006;5.926;2023-09-19T11:56:12;5.57;;;1.63;;
70908;SDS011;58554;52.006;5.926;2023-09-19T11:58:44;7.90;;;1.60;;
70908;SDS011;58554;52.006;5.926;2023-09-19T12:01:22;4.40;;;1.38;;
70908;SDS011;58554;52.006;5.926;2023-09-19T12:03:55;4.75;;;1.40;;
70908;SDS011;58554;52.006;5.926;2023-09-19T12:06:24;5.23;;;1.40;;
70908;SDS011;58554;52.006;5.926;2023-09-19T12:08:52;5.30;;;1.43;;
70908;SDS011;58554;52.006;5.926;2023-09-19T12:11:19;5.82;;;1.50;;
70908;SDS011;58554;52.006;5.926;2023-09-19T12:13:50;6.50;;;1.67;;
70908;SDS011;58554;52.006;5.926;2023-09-19T12:16:18;4.93;;;1.40;;
70908;SDS011;58554;52.006;5.926;2023-09-19T12:18:46;6.97;;;1.48;;
70908;SDS011;58554;52.006;5.926;2023-09-19T12:21:21;3.35;;;1.30;;
70908;SDS011;58554;52.006;5.926;2023-09-19T12:23:56;6.80;;;1.90;;
70908;SDS011;58554;52.006;5.926;2023-09-19T12:26:37;6.15;;;1.45;;
70908;SDS011;58554;52.006;5.926;2023-09-19T12:29:13;5.57;;;1.30;;
70908;SDS011;58554;52.006;5.926;2023-09-19T12:31:48;3.78;;;1.30;;
70908;SDS011;58554;52.006;5.926;2023-09-19T12:34:19;5.30;;;1.50;;
70908;SDS011;58554;52.006;5.926;2023-09-19T12:36:48;5.03;;;1.30;;
70908;SDS011;58554;52.006;5.926;2023-09-19T12:39:24;6.72;;;1.48;;
70908;SDS011;58554;52.006;5.926;2023-09-19T12:41:51;5.25;;;1.30;;
70908;SDS011;58554;52.006;5.926;2023-09-19T12:44:22;5.03;;;1.13;;
70908;SDS011;58554;52.006;5.926;2023-09-19T12:46:48;4.03;;;1.00;;
70908;SDS011;58554;52.006;5.926;2023-09-19T12:49:16;2.85;;;0.98;;
70908;SDS011;58554;52.006;5.926;2023-09-19T12:51:44;10.13;;;1.00;;
70908;SDS011;58554;52.006;5.926;2023-09-19T12:54:12;3.47;;;0.98;;
70908;SDS011;58554;52.006;5.926;2023-09-19T12:56:39;5.27;;;1.00;;
70908;SDS011;58554;52.006;5.926;2023-09-19T12:59:07;4.47;;;0.93;;
70908;SDS011;58554;52.006;5.926;2023-09-19T13:01:36;4.50;;;1.20;;
70908;SDS011;58554;52.006;5.926;2023-09-19T13:04:13;5.83;;;1.50;;
70908;SDS011;58554;52.006;5.926;2023-09-19T13:06:41;5.03;;;1.20;;
70908;SDS011;58554;52.006;5.926;2023-09-19T13:09:07;2.85;;;0.93;;
70908;SDS011;58554;52.006;5.926;2023-09-19T13:11:36;4.85;;;1.10;;
70908;SDS011;58554;52.006;5.926;2023-09-19T13:14:14;4.00;;;1.30;;
70908;SDS011;58554;52.006;5.926;2023-09-19T13:17:01;2.92;;;1.10;;
70908;SDS011;58554;52.006;5.926;2023-09-19T13:19:39;7.90;;;1.97;;
70908;SDS011;58554;52.006;5.926;2023-09-19T13:25:03;3.70;;;0.90;;
70908;SDS011;58554;52.006;5.926;2023-09-19T13:27:31;5.37;;;1.27;;
70908;SDS011;58554;52.006;5.926;2023-09-19T13:29:58;2.42;;;0.70;;
70908;SDS011;58554;52.006;5.926;2023-09-19T13:32:28;2.85;;;0.90;;
70908;SDS011;58554;52.006;5.926;2023-09-19T13:34:54;7.43;;;1.08;;
70908;SDS011;58554;52.006;5.926;2023-09-19T13:37:21;4.23;;;1.20;;
70908;SDS011;58554;52.006;5.926;2023-09-19T13:39:47;3.70;;;0.98;;
70908;SDS011;58554;52.006;5.926;2023-09-19T13:42:14;6.30;;;0.83;;
70908;SDS011;58554;52.006;5.926;2023-09-19T13:44:40;4.07;;;1.08;;
70908;SDS011;58554;52.006;5.926;2023-09-19T13:47:07;3.05;;;1.00;;
70908;SDS011;58554;52.006;5.926;2023-09-19T13:49:36;4.38;;;1.00;;
70908;SDS011;58554;52.006;5.926;2023-09-19T13:52:03;2.60;;;0.80;;
70908;SDS011;58554;52.006;5.926;2023-09-19T13:54:30;4.47;;;1.00;;
70908;SDS011;58554;52.006;5.926;2023-09-19T13:56:56;4.07;;;1.00;;
70908;SDS011;58554;52.006;5.926;2023-09-19T13:59:23;3.67;;;0.90;;
70908;SDS011;58554;52.006;5.926;2023-09-19T14:01:50;5.37;;;0.97;;
70908;SDS011;58554;52.006;5.926;2023-09-19T14:04:16;4.90;;;0.95;;
70908;SDS011;58554;52.006;5.926;2023-09-19T14:06:45;3.35;;;1.00;;
70908;SDS011;58554;52.006;5.926;2023-09-19T14:09:12;4.90;;;1.00;;
70908;SDS011;58554;52.006;5.926;2023-09-19T14:11:38;2.97;;;0.85;;
70908;SDS011;58554;52.006;5.926;2023-09-19T14:14:05;4.35;;;0.75;;
70908;SDS011;58554;52.006;5.926;2023-09-19T14:16:32;3.97;;;0.80;;
70908;SDS011;58554;52.006;5.926;2023-09-19T14:18:58;2.03;;;0.73;;
70908;SDS011;58554;52.006;5.926;2023-09-19T14:21:25;2.97;;;0.85;;
70908;SDS011;58554;52.006;5.926;2023-09-19T14:23:54;3.63;;;0.80;;
70908;SDS011;58554;52.006;5.926;2023-09-19T14:26:21;3.83;;;1.03;;
70908;SDS011;58554;52.006;5.926;2023-09-19T14:28:48;3.17;;;0.80;;
70908;SDS011;58554;52.006;5.926;2023-09-19T14:31:14;5.03;;;1.00;;
70908;SDS011;58554;52.006;5.926;2023-09-19T14:33:43;2.47;;;0.87;;
70908;SDS011;58554;52.006;5.926;2023-09-19T14:36:09;4.00;;;0.90;;
70908;SDS011;58554;52.006;5.926;2023-09-19T14:38:36;4.15;;;0.90;;
70908;SDS011;58554;52.006;5.926;2023-09-19T14:41:06;6.93;;;1.23;;
70908;SDS011;58554;52.006;5.926;2023-09-19T14:43:33;2.80;;;1.00;;
70908;SDS011;58554;52.006;5.926;2023-09-19T14:46:02;3.47;;;0.90;;
70908;SDS011;58554;52.006;5.926;2023-09-19T14:48:31;4.70;;;1.15;;
70908;SDS011;58554;52.006;5.926;2023-09-19T14:51:01;4.00;;;1.13;;
70908;SDS011;58554;52.006;5.926;2023-09-19T14:53:29;3.77;;;1.00;;
70908;SDS011;58554;52.006;5.926;2023-09-19T14:55:55;5.83;;;1.20;;
70908;SDS011;58554;52.006;5.926;2023-09-19T14:58:24;3.40;;;1.00;;
70908;SDS011;58554;52.006;5.926;2023-09-19T15:00:51;3.07;;;1.00;;
70908;SDS011;58554;52.006;5.926;2023-09-19T15:03:18;5.00;;;1.00;;
70908;SDS011;58554;52.006;5.926;2023-09-19T15:05:44;3.33;;;1.17;;
70908;SDS011;58554;52.006;5.926;2023-09-19T15:08:11;3.55;;;1.30;;
70908;SDS011;58554;52.006;5.926;2023-09-19T15:10:37;3.58;;;1.00;;
70908;SDS011;58554;52.006;5.926;2023-09-19T15:13:04;2.75;;;1.00;;
70908;SDS011;58554;52.006;5.926;2023-09-19T15:15:34;3.78;;;1.00;;
70908;SDS011;58554;52.006;5.926;2023-09-19T15:18:00;2.55;;;1.02;;
70908;SDS011;58554;52.006;5.926;2023-09-19T15:20:27;4.37;;;1.43;;